New Whiteland, Indiana
Current Conditions -  °F | °C
As of 5:54 AM on Saturday 01 Nov 2014 (Local Time) from KIND Reporting Station
Overcast Overcast  
Wind Chill: 20°   Ceiling: 6000
Heat Index: 32°   Visibility: 10mi
Dew Point: 22°   Wind: 20mph
Humidity: 66%   Direction: 350°N
Pressure: 30.23"   Gusts: 32mph
Location:  39.551°N, 86.0995°W
Report Text: KIND 010954Z 35017G28KT 10SM OVC060 00/M06 A3023 RMK AO2 PK WND 34029/0910 SLP244 T00001056
Loading
Personal Weather Stations






























Interactive Weather Map
Tropical Storm Tracking
New forecast layout! Learn more

10-Day Weather Forecast

Advertisements
Track Severe Weather on mobile